Pagrindinis puslapis
METAR-TAF:

METAR-TAF

Oro uostai :

Santjagas, Čilė

platuma: 33-23S, ilguma: 070-47W, Aukštis: 475 m

Dabartinis oras

Ataskaita buvo paskelbta 23 minutes, ne 13:00 UTC
Vėjas 3 kt nuo kintamojo kryptimis
Temperatūra 12°C
Drėgmė 58%
Slėgis 1022 hPa
Matomumas 10 km arba daugiau
nėra debesų žemiau 1500 m ir nėra kamuolinių lietaus debesų

METAR: SCEL 231300Z VRB03KT CAVOK 12/04 Q1022 NOSIG

Laikas: 10:23 (13:23 UTC)

Prognozė

Ataskaita buvo paskelbta 3 valandos ir 23 minutes, ne 10:00 UTC
Prognozė galioja nuo 23 metu 12 UTC su 24 metu 12 UTC
Vėjas 5 kt iš Pietų/Pietryčių
Matomumas 10 km arba daugiau
nėra debesų žemiau 1500 m ir nėra kamuolinių lietaus debesų
Laikinai
nuo 23 metu 12 UTC su 23 metu 14 UTC
Matomumas: 7000 m
Tapsmas
nuo 23 metu 16 UTC su 23 metu 18 UTC
Vėjas 12 kt iš Pietų
Tapsmas
nuo 24 metu 02 UTC su 24 metu 04 UTC
Vėjas 5 kt iš Pietų/Pietryčių

TAF: SCEL 231000Z 2312/2412 16005KT CAVOK TX25/2319Z TN09/2410Z TEMPO 2312/2314 7000 NSC BECMG 2316/2318 19012KT BECMG 2402/2404 16005KT

Orai ataskaitas ir orų prognozės (METAR, TAF).

turimą stotys yra geltonos ir raudonos taškus žemėlapyje.

Perkelti pele per norėdami pamatyti stoties vardą.

Tada spustelėkite, norėdami matyti oro stebėjimo ir prognozės.

Norėdami pakeisti žemėlapį: spustelėkite ant žalios mygtukų su juodo kryžiaus žemyn,; žalią mygtuką su brūkšneliu, jei norite nutolinti; arba žalių rodyklių gretimoms žemėlapius.


METAR-TAF: